Galeao - Antonio Carlos Jobim International Airport


Codes: SBGL/GIG
Name: Galeao - Antonio Carlos Jobim International Airport
City: Rio De Janeiro
Country: Brazil
Elevation: 28 ft.
Wikipedia:

Photos at Galeao - Antonio Carlos Jobim International Airport


   Photos courtesy of SpottingLog. You can add your own sightings and photos by signing up for a free trial today.



PR-GUF, 16-Feb-2014
© Luis Vaz

PT-MZT, 16-Feb-2014
© Luis Vaz

PR-AZB, 16-Feb-2014
© Luis Vaz

PR-GUK, 16-Feb-2014
© Luis Vaz

PR-GGJ, 16-Feb-2014
© Luis Vaz

PR-GUO, 16-Feb-2014
© Luis Vaz

LV-CXT, 16-Feb-2014
© Luis Vaz

PR-GGU, 16-Feb-2014
© Luis Vaz

PR-AVK, 16-Feb-2014
© Luis Vaz

PR-MYR, 16-Feb-2014
© Luis Vaz

PR-ONG, 16-Feb-2014
© Luis Vaz

PR-GGB, 16-Feb-2014
© Luis Vaz


Weather at Galeao - Antonio Carlos Jobim International Airport


Time (UTC)DescriptionTempratureWindCloud coverageVisibilityPressureHumidity
16-Jun-2024 00:00Clear Sky23°C2 mph, N0%10000m1018hPa60%
16-Jun-2024 03:00Clear Sky23°C2 mph, NW1%10000m1018hPa58%
16-Jun-2024 06:00Clear Sky21°C2 mph, NW1%10000m1018hPa58%
16-Jun-2024 09:00Clear Sky20°C2 mph, NW2%10000m1019hPa63%
16-Jun-2024 12:00Clear Sky25°C2 mph, NW2%10000m1020hPa51%
16-Jun-2024 15:00Clear Sky32°C0 mph, E0%10000m1017hPa34%
16-Jun-2024 18:00Clear Sky32°C4 mph, SE1%10000m1015hPa32%
16-Jun-2024 21:00Clear Sky25°C2 mph, E1%10000m1015hPa53%
17-Jun-2024 00:00Clear Sky23°C2 mph, N1%10000m1016hPa57%
17-Jun-2024 03:00Clear Sky22°C2 mph, NW0%10000m1016hPa59%
17-Jun-2024 06:00Clear Sky21°C2 mph, NW0%10000m1015hPa61%
17-Jun-2024 09:00Clear Sky20°C2 mph, NW0%10000m1015hPa65%
17-Jun-2024 12:00Clear Sky25°C2 mph, NW0%10000m1016hPa49%
17-Jun-2024 15:00Clear Sky32°C0 mph, N5%10000m1015hPa31%
17-Jun-2024 18:00Few Clouds32°C2 mph, SE21%10000m1012hPa28%
17-Jun-2024 21:00Clear Sky26°C2 mph, E10%10000m1013hPa46%
18-Jun-2024 00:00Few Clouds24°C2 mph, N20%10000m1014hPa50%
18-Jun-2024 03:00Few Clouds22°C2 mph, NW12%10000m1014hPa53%
18-Jun-2024 06:00Clear Sky21°C2 mph, NW10%10000m1014hPa58%
18-Jun-2024 09:00Clear Sky20°C2 mph, NW6%10000m1014hPa61%
18-Jun-2024 12:00Clear Sky26°C2 mph, NW7%10000m1016hPa47%
18-Jun-2024 15:00Clear Sky33°C2 mph, N7%10000m1014hPa27%
18-Jun-2024 18:00Clear Sky32°C0 mph, NE6%10000m1012hPa27%
18-Jun-2024 21:00Clear Sky26°C4 mph, E5%10000m1013hPa48%
19-Jun-2024 00:00Clear Sky24°C2 mph, N6%10000m1014hPa53%
19-Jun-2024 03:00Clear Sky23°C2 mph, NW6%10000m1015hPa54%
19-Jun-2024 06:00Clear Sky22°C2 mph, NW5%10000m1014hPa55%
19-Jun-2024 09:00Clear Sky21°C2 mph, NW6%10000m1015hPa60%
19-Jun-2024 12:00Clear Sky26°C2 mph, NW5%10000m1017hPa46%
19-Jun-2024 15:00Clear Sky33°C0 mph, W0%10000m1015hPa29%
19-Jun-2024 18:00Clear Sky33°C0 mph, W1%10000m1012hPa28%
19-Jun-2024 21:00Clear Sky26°C4 mph, E5%10000m1013hPa49%
20-Jun-2024 00:00Clear Sky25°C2 mph, N5%10000m1015hPa52%
20-Jun-2024 03:00Clear Sky23°C2 mph, NW2%10000m1015hPa54%
20-Jun-2024 06:00Clear Sky22°C2 mph, NW2%10000m1014hPa58%
20-Jun-2024 09:00Clear Sky22°C2 mph, NW0%10000m1015hPa61%
20-Jun-2024 12:00Clear Sky27°C2 mph, NW0%10000m1016hPa46%
20-Jun-2024 15:00Clear Sky33°C0 mph, NW0%10000m1014hPa29%
20-Jun-2024 18:00Clear Sky34°C2 mph, SW0%10000m1012hPa25%
20-Jun-2024 21:00Clear Sky27°C4 mph, SW0%10000m1014hPa47%